createdAt,value
2023-03-28T00:00:48.859Z,0.88
2023-03-28T00:03:19.302Z,0.80
2023-03-28T00:05:48.994Z,0.70
2023-03-28T00:08:19.095Z,0.70
2023-03-28T00:10:46.553Z,0.63
2023-03-28T00:13:19.883Z,0.70
2023-03-28T00:15:46.792Z,0.82
2023-03-28T00:18:13.444Z,0.65
2023-03-28T00:20:43.563Z,0.60
2023-03-28T00:23:12.217Z,0.68
2023-03-28T00:25:41.742Z,0.95
2023-03-28T00:28:08.632Z,0.70
2023-03-28T00:30:35.355Z,0.80
2023-03-28T00:33:02.140Z,0.82
2023-03-28T00:35:28.795Z,0.60
2023-03-28T00:37:57.990Z,0.80
2023-03-28T00:40:26.153Z,0.50
2023-03-28T00:42:53.708Z,0.98
2023-03-28T00:45:21.693Z,0.70
2023-03-28T00:47:57.816Z,0.80
2023-03-28T00:50:40.978Z,0.60
2023-03-28T00:53:13.850Z,0.70
2023-03-28T00:55:49.342Z,0.60
2023-03-28T00:58:23.176Z,0.70
2023-03-28T01:00:50.772Z,0.60
2023-03-28T01:03:19.468Z,0.60
2023-03-28T01:05:47.886Z,0.60
2023-03-28T01:08:21.810Z,0.80
2023-03-28T01:10:49.162Z,1.02
2023-03-28T01:13:19.321Z,0.63
2023-03-28T01:15:49.774Z,0.80
2023-03-28T01:18:18.624Z,0.80
2023-03-28T01:20:54.512Z,0.70
2023-03-28T01:24:11.494Z,0.68
2023-03-28T01:27:01.979Z,0.77
2023-03-28T01:29:49.589Z,0.90
2023-03-28T01:32:37.399Z,0.70
2023-03-28T01:35:41.499Z,0.90
2023-03-28T01:38:27.676Z,1.20
2023-03-28T01:41:20.749Z,1.25
2023-03-28T01:43:47.348Z,1.13
2023-03-28T01:46:20.285Z,1.15
2023-03-28T01:49:20.513Z,1.30
2023-03-28T01:52:19.398Z,1.30
2023-03-28T01:55:05.257Z,1.20
2023-03-28T01:57:41.347Z,1.27
2023-03-28T02:00:29.352Z,1.63
2023-03-28T02:03:11.342Z,1.50
2023-03-28T02:05:39.629Z,1.42
2023-03-28T02:08:10.003Z,1.30
2023-03-28T02:10:40.836Z,1.52
2023-03-28T02:13:16.609Z,1.55
2023-03-28T02:15:48.944Z,2.00
2023-03-28T02:18:21.559Z,1.50
2023-03-28T02:20:54.889Z,2.00
2023-03-28T02:23:29.682Z,1.67
2023-03-28T02:25:57.223Z,2.17
2023-03-28T02:28:25.630Z,2.38
2023-03-28T02:30:53.267Z,2.72
2023-03-28T02:33:40.247Z,2.38
2023-03-28T02:39:05.242Z,2.53
2023-03-28T02:42:05.907Z,2.38
2023-03-28T02:44:45.942Z,2.60
2023-03-28T02:47:21.359Z,2.97
2023-03-28T02:50:12.174Z,2.72
2023-03-28T02:52:56.037Z,2.42
2023-03-28T02:55:49.692Z,2.55
2023-03-28T02:58:37.703Z,2.42
2023-03-28T03:01:08.182Z,2.63
2023-03-28T03:03:38.480Z,2.50
2023-03-28T03:06:06.255Z,3.00
2023-03-28T03:08:34.316Z,2.65
2023-03-28T03:11:00.912Z,2.95
2023-03-28T03:13:27.461Z,2.70
2023-03-28T03:15:54.589Z,3.28
2023-03-28T03:18:21.530Z,3.05
2023-03-28T03:20:50.206Z,2.90
2023-03-28T03:23:16.791Z,3.08
2023-03-28T03:25:43.397Z,3.67
2023-03-28T03:28:10.783Z,3.60
2023-03-28T03:30:37.696Z,3.63
2023-03-28T03:33:05.620Z,3.47
2023-03-28T03:35:35.590Z,3.65
2023-03-28T03:38:02.996Z,4.50
2023-03-28T03:40:29.814Z,4.43
2023-03-28T03:42:56.368Z,4.03
2023-03-28T03:45:22.937Z,3.60
2023-03-28T03:47:49.510Z,4.00
2023-03-28T03:50:16.154Z,4.88
2023-03-28T03:52:42.790Z,4.15
2023-03-28T03:55:09.803Z,4.70
2023-03-28T03:57:36.814Z,4.90
2023-03-28T04:00:11.972Z,4.47
2023-03-28T04:02:39.710Z,4.20
2023-03-28T04:05:09.288Z,4.18
2023-03-28T04:07:36.732Z,3.85
2023-03-28T04:10:05.085Z,4.13
2023-03-28T04:12:31.782Z,4.28
2023-03-28T04:14:58.398Z,4.80
2023-03-28T04:17:30.034Z,4.32
2023-03-28T04:19:57.163Z,3.55
2023-03-28T04:22:29.647Z,3.60
2023-03-28T04:24:59.282Z,3.30
2023-03-28T04:27:29.684Z,3.50
2023-03-28T04:29:56.268Z,3.65
2023-03-28T04:32:24.722Z,3.75
2023-03-28T04:34:51.293Z,3.80
2023-03-28T04:37:19.090Z,3.60
2023-03-28T04:39:47.750Z,3.30
2023-03-28T04:42:15.015Z,3.40
2023-03-28T04:44:41.617Z,3.85
2023-03-28T04:47:11.703Z,3.83
2023-03-28T04:49:38.869Z,3.65
2023-03-28T04:52:06.539Z,3.63
2023-03-28T04:54:33.088Z,3.40
2023-03-28T04:56:59.688Z,3.67
2023-03-28T04:59:26.276Z,3.85
2023-03-28T05:01:53.008Z,4.57
2023-03-28T05:04:22.050Z,3.83
2023-03-28T05:06:49.972Z,3.83
2023-03-28T05:09:17.693Z,3.70
2023-03-28T05:11:45.402Z,3.58
2023-03-28T05:14:12.018Z,3.70
2023-03-28T05:16:38.638Z,4.75
2023-03-28T05:19:05.289Z,4.38
2023-03-28T05:21:31.908Z,4.05
2023-03-28T05:23:58.562Z,4.38
2023-03-28T05:26:25.690Z,4.00
2023-03-28T05:28:52.341Z,4.38
2023-03-28T05:31:18.988Z,5.10
2023-03-28T05:33:45.566Z,4.47
2023-03-28T05:36:13.021Z,4.47
2023-03-28T05:38:39.658Z,5.10
2023-03-28T05:41:06.548Z,4.25
2023-03-28T05:43:33.128Z,4.45
2023-03-28T05:45:59.786Z,4.45
2023-03-28T05:48:26.370Z,4.55
2023-03-28T05:50:52.963Z,4.90
2023-03-28T05:53:20.240Z,4.70
2023-03-28T05:55:46.781Z,4.50
2023-03-28T05:58:13.595Z,3.97
2023-03-28T06:00:40.512Z,4.85
2023-03-28T06:03:09.705Z,4.45
2023-03-28T06:05:43.429Z,4.63
2023-03-28T06:08:10.254Z,4.88
2023-03-28T06:10:37.097Z,4.80
2023-03-28T06:13:03.720Z,4.63
2023-03-28T06:15:30.244Z,4.82
2023-03-28T06:17:57.939Z,4.80
2023-03-28T06:20:24.556Z,4.20
2023-03-28T06:22:52.187Z,4.13
2023-03-28T06:25:18.748Z,4.30
2023-03-28T06:27:45.263Z,3.83
2023-03-28T06:30:12.653Z,4.70
2023-03-28T06:32:39.276Z,3.95
2023-03-28T06:35:06.427Z,3.83
2023-03-28T06:37:33.073Z,3.83
2023-03-28T06:39:59.671Z,4.20
2023-03-28T06:42:27.151Z,3.97
2023-03-28T06:44:53.767Z,3.78
2023-03-28T06:47:20.672Z,3.90
2023-03-28T06:49:47.237Z,3.67
2023-03-28T06:52:13.835Z,3.22
2023-03-28T06:54:40.432Z,3.88
2023-03-28T06:57:06.971Z,3.78
2023-03-28T06:59:33.616Z,3.88
2023-03-28T07:02:00.238Z,4.15
2023-03-28T07:04:26.846Z,3.42
2023-03-28T07:06:53.410Z,3.00
2023-03-28T07:09:19.966Z,3.17
2023-03-28T07:11:46.644Z,3.63
2023-03-28T07:14:13.622Z,3.50
2023-03-28T07:16:40.321Z,3.72
2023-03-28T07:19:07.649Z,3.75
2023-03-28T07:21:34.478Z,4.20
2023-03-28T07:24:01.310Z,3.30
2023-03-28T07:26:28.893Z,3.42
2023-03-28T07:28:55.962Z,3.78
2023-03-28T07:31:22.587Z,3.88
2023-03-28T07:33:50.269Z,3.88
2023-03-28T07:36:19.787Z,3.65
2023-03-28T07:38:48.942Z,3.85
2023-03-28T07:41:16.400Z,3.90
2023-03-28T07:43:43.145Z,4.32
2023-03-28T07:46:16.834Z,4.20
2023-03-28T07:48:46.405Z,3.90
2023-03-28T07:51:19.547Z,3.90
2023-03-28T07:53:46.082Z,4.88
2023-03-28T07:56:13.229Z,3.90
2023-03-28T07:58:42.950Z,4.40
2023-03-28T08:01:12.653Z,3.78
2023-03-28T08:03:40.295Z,4.35
2023-03-28T08:06:24.329Z,4.28
2023-03-28T08:08:55.762Z,3.58
2023-03-28T08:11:22.861Z,3.65
2023-03-28T08:13:49.400Z,4.53
2023-03-28T08:16:16.072Z,4.20
2023-03-28T08:18:42.725Z,3.90
2023-03-28T08:21:09.276Z,4.93
2023-03-28T08:23:36.754Z,4.25
2023-03-28T08:26:06.089Z,3.92
2023-03-28T08:28:35.745Z,3.72
2023-03-28T08:31:03.326Z,3.65
2023-03-28T08:33:32.795Z,3.85
2023-03-28T08:35:59.460Z,4.00
2023-03-28T08:38:26.104Z,3.50
2023-03-28T08:41:03.509Z,3.15
2023-03-28T08:43:51.615Z,3.50
2023-03-28T08:46:21.899Z,2.95
2023-03-28T08:48:52.283Z,2.85
2023-03-28T08:51:18.799Z,2.67
2023-03-28T08:54:03.801Z,2.88
2023-03-28T08:56:36.294Z,2.40
2023-03-28T08:59:10.419Z,2.88
2023-03-28T09:01:37.301Z,2.70
2023-03-28T09:04:04.324Z,2.70
2023-03-28T09:06:37.029Z,2.08
2023-03-28T09:09:28.146Z,3.03
2023-03-28T09:11:57.661Z,2.97
2023-03-28T09:14:32.828Z,2.25
2023-03-28T09:17:07.630Z,2.88
2023-03-28T09:19:49.860Z,2.38
2023-03-28T09:22:31.737Z,2.47
2023-03-28T09:25:33.874Z,1.98
2023-03-28T09:28:41.685Z,2.05
2023-03-28T09:31:13.067Z,2.15
2023-03-28T09:33:43.736Z,2.55
2023-03-28T09:36:31.539Z,3.25
2023-03-28T09:39:14.155Z,2.30
2023-03-28T09:44:28.886Z,2.67
2023-03-28T09:46:57.761Z,2.08
2023-03-28T09:49:26.235Z,1.85
2023-03-28T09:51:55.562Z,2.70
2023-03-28T09:54:35.296Z,2.25
2023-03-28T09:57:04.735Z,2.80
2023-03-28T09:59:34.293Z,2.38
2023-03-28T10:02:03.930Z,2.05
2023-03-28T10:04:30.577Z,2.30
2023-03-28T10:07:19.575Z,1.92
2023-03-28T10:09:54.607Z,2.00
2023-03-28T10:12:32.380Z,1.80
2023-03-28T10:14:59.230Z,1.95
2023-03-28T10:17:31.057Z,2.20
2023-03-28T10:20:10.348Z,1.90
2023-03-28T10:22:40.085Z,1.98
2023-03-28T10:25:13.497Z,1.80
2023-03-28T10:27:40.877Z,1.90
2023-03-28T10:30:09.535Z,2.28
2023-03-28T10:32:36.629Z,1.88
2023-03-28T10:35:20.990Z,2.05
2023-03-28T10:37:48.657Z,2.10
2023-03-28T10:40:18.126Z,1.95
2023-03-28T10:42:46.297Z,1.83
2023-03-28T10:45:20.579Z,2.03
2023-03-28T10:47:50.496Z,1.83
2023-03-28T10:50:31.171Z,1.70
2023-03-28T10:53:33.121Z,1.60
2023-03-28T10:56:22.103Z,1.80
2023-03-28T10:59:00.822Z,1.73
2023-03-28T11:01:40.475Z,1.90
2023-03-28T11:04:16.129Z,2.33
2023-03-28T11:06:57.406Z,1.70
2023-03-28T11:09:35.870Z,2.38
2023-03-28T11:12:30.981Z,2.33
2023-03-28T11:15:11.445Z,1.65
2023-03-28T11:17:56.580Z,1.60
2023-03-28T11:20:44.000Z,1.95
2023-03-28T11:23:19.589Z,1.40
2023-03-28T11:25:56.917Z,1.30
2023-03-28T11:28:46.600Z,1.17
2023-03-28T11:31:19.671Z,1.23
2023-03-28T11:34:00.747Z,1.73
2023-03-28T11:36:35.987Z,1.42
2023-03-28T11:39:22.578Z,1.70
2023-03-28T11:41:51.405Z,1.42
2023-03-28T11:44:31.468Z,1.75
2023-03-28T11:47:08.422Z,1.52
2023-03-28T11:50:04.606Z,1.20
2023-03-28T11:52:50.694Z,1.38
2023-03-28T11:55:22.043Z,1.48
2023-03-28T11:57:54.829Z,1.50
2023-03-28T12:00:33.963Z,1.35
2023-03-28T12:03:16.947Z,1.60
2023-03-28T12:05:50.571Z,1.42
2023-03-28T12:08:22.938Z,1.80
2023-03-28T12:10:54.124Z,1.17
2023-03-28T12:13:31.653Z,1.38
2023-03-28T12:16:08.977Z,1.40
2023-03-28T12:18:35.846Z,1.20
2023-03-28T12:21:13.839Z,1.40
2023-03-28T12:24:11.725Z,1.20
2023-03-28T12:27:05.033Z,1.60
2023-03-28T12:29:51.840Z,1.67
2023-03-28T12:32:34.407Z,1.63
2023-03-28T12:35:11.483Z,1.35
2023-03-28T12:38:09.569Z,1.30
2023-03-28T12:40:55.459Z,1.20
2023-03-28T12:43:27.021Z,1.10
2023-03-28T12:45:57.748Z,1.40
2023-03-28T12:48:30.493Z,1.30
2023-03-28T12:51:03.699Z,1.05
2023-03-28T12:53:32.818Z,1.05
2023-03-28T12:56:00.599Z,1.23
2023-03-28T12:58:30.149Z,1.10
2023-03-28T13:01:09.119Z,1.02
2023-03-28T13:04:24.168Z,1.00
2023-03-28T13:07:21.662Z,1.30
2023-03-28T13:12:26.102Z,0.80
2023-03-28T13:14:58.459Z,1.23
2023-03-28T13:17:31.396Z,0.98
2023-03-28T13:20:26.761Z,1.67
2023-03-28T13:23:00.504Z,1.33
2023-03-28T13:25:32.558Z,0.90
2023-03-28T13:28:11.414Z,0.90
2023-03-28T13:30:43.557Z,1.20
2023-03-28T13:33:22.338Z,1.10
2023-03-28T13:36:09.171Z,1.20
2023-03-28T13:41:32.828Z,1.25
2023-03-28T13:44:01.968Z,1.10
2023-03-28T13:46:32.062Z,1.05
2023-03-28T13:49:11.226Z,1.15
2023-03-28T13:51:44.178Z,1.52
2023-03-28T13:54:11.678Z,1.10
2023-03-28T13:56:43.467Z,1.20
2023-03-28T13:59:25.610Z,0.90
2023-03-28T14:01:57.595Z,0.75
2023-03-28T14:04:32.769Z,1.25
2023-03-28T14:07:00.807Z,1.23
2023-03-28T14:09:29.897Z,1.30
2023-03-28T14:11:59.925Z,1.02
2023-03-28T14:14:42.597Z,1.08
2023-03-28T14:17:17.227Z,2.40
2023-03-28T14:19:54.211Z,4.57
2023-03-28T14:22:24.452Z,2.00
2023-03-28T14:24:53.925Z,1.58
2023-03-28T14:27:37.146Z,1.10
2023-03-28T14:30:17.263Z,1.27
2023-03-28T14:33:07.465Z,1.17
2023-03-28T14:35:36.268Z,1.55
2023-03-28T14:38:14.652Z,1.20
2023-03-28T14:40:43.980Z,1.30
2023-03-28T14:43:12.121Z,0.98
2023-03-28T14:45:51.782Z,1.33
2023-03-28T14:48:24.716Z,1.00
2023-03-28T14:50:53.643Z,1.17
2023-03-28T14:53:27.209Z,1.00
2023-03-28T14:56:00.819Z,1.25
2023-03-28T14:58:31.078Z,1.35
2023-03-28T15:01:00.885Z,1.30
2023-03-28T15:03:38.921Z,1.10
2023-03-28T15:06:07.410Z,1.10
2023-03-28T15:08:38.000Z,1.20
2023-03-28T15:11:23.416Z,1.23
2023-03-28T15:13:58.290Z,1.15
2023-03-28T15:16:26.447Z,1.10
2023-03-28T15:19:07.282Z,1.02
2023-03-28T15:21:39.464Z,1.13
2023-03-28T15:24:10.864Z,0.98
2023-03-28T15:26:47.900Z,1.30
2023-03-28T15:29:17.864Z,0.98
2023-03-28T15:31:45.354Z,0.90
2023-03-28T15:34:23.200Z,0.85
2023-03-28T15:37:06.829Z,1.20
2023-03-28T15:39:35.070Z,1.00
2023-03-28T15:42:22.605Z,1.27
2023-03-28T15:44:58.052Z,1.00
2023-03-28T15:47:34.327Z,1.40
2023-03-28T15:50:04.787Z,1.13
2023-03-28T15:52:31.953Z,1.10
2023-03-28T15:55:01.149Z,0.70
2023-03-28T15:57:30.134Z,1.02
2023-03-28T15:59:58.379Z,1.00
2023-03-28T16:02:25.078Z,1.33
2023-03-28T16:05:05.848Z,0.85
2023-03-28T16:07:48.502Z,1.10
2023-03-28T16:10:24.093Z,1.40
2023-03-28T16:12:51.501Z,1.27
2023-03-28T16:15:19.202Z,1.10
2023-03-28T16:17:47.373Z,1.10
2023-03-28T16:20:22.044Z,1.40
2023-03-28T16:22:48.792Z,1.10
2023-03-28T16:25:15.593Z,1.50
2023-03-28T16:27:42.849Z,0.70
2023-03-28T16:30:33.806Z,1.20
2023-03-28T16:33:00.769Z,1.02
2023-03-28T16:35:28.542Z,1.15
2023-03-28T16:37:55.675Z,0.80
2023-03-28T16:40:22.955Z,0.65
2023-03-28T16:42:51.035Z,1.08
2023-03-28T16:45:17.831Z,1.30
2023-03-28T16:47:44.638Z,1.20
2023-03-28T16:50:11.346Z,1.77
2023-03-28T16:52:38.814Z,1.10
2023-03-28T16:55:10.294Z,1.10
2023-03-28T16:57:37.049Z,1.42
2023-03-28T17:00:11.814Z,1.25
2023-03-28T17:02:38.940Z,1.40
2023-03-28T17:05:06.108Z,0.75
2023-03-28T17:07:32.752Z,1.20
2023-03-28T17:09:59.321Z,0.82
2023-03-28T17:12:26.223Z,1.00
2023-03-28T17:14:52.769Z,1.23
2023-03-28T17:17:20.049Z,1.30
2023-03-28T17:19:46.650Z,1.10
2023-03-28T17:22:13.317Z,1.10
2023-03-28T17:24:40.115Z,1.35
2023-03-28T17:27:07.100Z,1.30
2023-03-28T17:29:34.278Z,1.15
2023-03-28T17:32:02.863Z,1.30
2023-03-28T17:34:32.023Z,1.77
2023-03-28T17:37:00.481Z,1.40
2023-03-28T17:39:28.533Z,1.33
2023-03-28T17:41:55.075Z,1.63
2023-03-28T17:44:21.691Z,2.05
2023-03-28T17:46:48.407Z,2.05
2023-03-28T17:49:16.966Z,2.08
2023-03-28T17:51:45.039Z,2.40
2023-03-28T17:54:12.183Z,2.00
2023-03-28T17:56:39.862Z,2.45
2023-03-28T17:59:06.888Z,1.60
2023-03-28T18:01:33.936Z,2.05
2023-03-28T18:04:01.191Z,2.28
2023-03-28T18:06:27.925Z,2.30
2023-03-28T18:08:54.502Z,2.42
2023-03-28T18:11:22.998Z,2.28
2023-03-28T18:13:52.572Z,1.80
2023-03-28T18:16:19.468Z,2.13
2023-03-28T18:18:46.628Z,2.28
2023-03-28T18:21:13.381Z,2.33
2023-03-28T18:23:40.873Z,2.60
2023-03-28T18:26:08.075Z,3.13
2023-03-28T18:28:36.397Z,2.50
2023-03-28T18:31:12.476Z,3.35
2023-03-28T18:33:41.194Z,3.33
2023-03-28T18:36:08.389Z,3.15
2023-03-28T18:38:39.806Z,4.35
2023-03-28T18:41:08.319Z,5.03
2023-03-28T18:43:36.181Z,6.00
2023-03-28T18:46:03.864Z,5.85
2023-03-28T18:48:30.862Z,5.32
2023-03-28T18:50:58.223Z,4.88
2023-03-28T18:53:25.654Z,5.50
2023-03-28T18:55:53.130Z,4.95
2023-03-28T18:58:19.771Z,4.32
2023-03-28T19:00:46.943Z,4.78
2023-03-28T19:03:17.291Z,4.50
2023-03-28T19:05:44.425Z,4.97
2023-03-28T19:08:11.007Z,5.53
2023-03-28T19:10:37.627Z,5.05
2023-03-28T19:13:04.181Z,5.00
2023-03-28T19:15:31.042Z,5.50
2023-03-28T19:17:57.682Z,4.93
2023-03-28T19:20:24.273Z,5.20
2023-03-28T19:22:50.975Z,4.75
2023-03-28T19:25:17.598Z,4.80
2023-03-28T19:27:44.190Z,4.72
2023-03-28T19:30:11.116Z,3.83
2023-03-28T19:32:37.876Z,3.92
2023-03-28T19:35:05.036Z,4.07
2023-03-28T19:37:31.612Z,3.60
2023-03-28T19:40:01.306Z,4.50
2023-03-28T19:42:27.891Z,4.53
2023-03-28T19:44:54.418Z,4.40
2023-03-28T19:47:21.141Z,4.43
2023-03-28T19:49:49.227Z,3.55
2023-03-28T19:52:15.864Z,5.63
2023-03-28T19:54:42.570Z,5.43
2023-03-28T19:57:09.122Z,6.38
2023-03-28T19:59:35.781Z,5.53
2023-03-28T20:02:03.795Z,5.55
2023-03-28T20:04:30.582Z,5.28
2023-03-28T20:06:57.187Z,4.95
2023-03-28T20:09:24.373Z,4.60
2023-03-28T20:11:51.115Z,5.88
2023-03-28T20:14:20.194Z,4.80
2023-03-28T20:16:47.998Z,5.45
2023-03-28T20:19:14.706Z,5.00
2023-03-28T20:21:41.321Z,5.10
2023-03-28T20:24:08.264Z,4.85
2023-03-28T20:26:34.901Z,4.47
2023-03-28T20:29:01.513Z,3.13
2023-03-28T20:31:29.179Z,2.90
2023-03-28T20:33:55.938Z,3.13
2023-03-28T20:36:23.015Z,2.95
2023-03-28T20:38:49.678Z,3.70
2023-03-28T20:41:18.316Z,3.05
2023-03-28T20:43:48.188Z,3.40
2023-03-28T20:46:20.030Z,2.97
2023-03-28T20:48:52.354Z,3.60
2023-03-28T20:51:22.531Z,3.13
2023-03-28T20:53:54.418Z,3.10
2023-03-28T20:56:22.006Z,2.95
2023-03-28T20:58:50.651Z,3.85
2023-03-28T21:01:18.808Z,3.97
2023-03-28T21:03:53.426Z,4.65
2023-03-28T21:06:26.164Z,4.50
2023-03-28T21:08:54.915Z,4.28
2023-03-28T21:11:26.325Z,4.35
2023-03-28T21:13:54.377Z,4.68
2023-03-28T21:16:21.742Z,3.60
2023-03-28T21:18:49.355Z,4.65
2023-03-28T21:21:18.070Z,2.83
2023-03-28T21:23:45.849Z,2.75
2023-03-28T21:26:15.211Z,2.97
2023-03-28T21:28:42.050Z,2.83
2023-03-28T21:31:11.874Z,2.97
2023-03-28T21:33:38.602Z,3.15
2023-03-28T21:36:07.293Z,2.17
2023-03-28T21:38:34.798Z,2.80
2023-03-28T21:41:01.991Z,2.20
2023-03-28T21:43:29.023Z,2.33
2023-03-28T21:45:55.937Z,1.90
2023-03-28T21:48:22.582Z,2.03
2023-03-28T21:50:53.031Z,2.42
2023-03-28T21:53:20.755Z,2.03
2023-03-28T21:55:47.433Z,2.25
2023-03-28T21:58:14.035Z,2.80
2023-03-28T22:00:40.785Z,2.30
2023-03-28T22:03:07.492Z,2.55
2023-03-28T22:05:40.162Z,2.65
2023-03-28T22:08:09.938Z,2.40
2023-03-28T22:10:37.546Z,2.22
2023-03-28T22:13:06.665Z,2.80
2023-03-28T22:15:34.653Z,2.65
2023-03-28T22:18:01.307Z,2.35
2023-03-28T22:20:28.409Z,2.10
2023-03-28T22:22:55.069Z,2.20
2023-03-28T22:25:22.656Z,2.10
2023-03-28T22:27:49.248Z,2.00
2023-03-28T22:30:15.812Z,2.47
2023-03-28T22:32:42.597Z,2.50
2023-03-28T22:35:11.110Z,1.90
2023-03-28T22:37:38.203Z,2.22
2023-03-28T22:40:08.368Z,2.22
2023-03-28T22:42:34.913Z,2.20
2023-03-28T22:45:01.805Z,2.38
2023-03-28T22:47:30.431Z,2.05
2023-03-28T22:49:58.182Z,2.60
2023-03-28T22:52:31.566Z,2.50
2023-03-28T22:54:58.420Z,2.15
2023-03-28T22:57:25.078Z,1.85
2023-03-28T22:59:53.113Z,2.03
2023-03-28T23:02:19.703Z,2.00
2023-03-28T23:04:47.189Z,2.05
2023-03-28T23:07:14.621Z,2.70
2023-03-28T23:09:44.046Z,2.83
2023-03-28T23:12:10.665Z,2.88
2023-03-28T23:14:37.535Z,2.60
2023-03-28T23:17:04.412Z,2.47
2023-03-28T23:19:32.013Z,3.50
2023-03-28T23:21:59.573Z,2.53
2023-03-28T23:24:27.818Z,2.45
2023-03-28T23:26:56.102Z,2.53
2023-03-28T23:29:23.883Z,2.65
2023-03-28T23:31:50.872Z,2.65
2023-03-28T23:34:17.538Z,2.30
2023-03-28T23:36:46.257Z,2.38
2023-03-28T23:39:13.529Z,2.40
2023-03-28T23:41:40.969Z,2.35
2023-03-28T23:44:07.789Z,2.40
2023-03-28T23:46:34.740Z,2.30
2023-03-28T23:49:01.408Z,2.60
2023-03-28T23:51:29.251Z,2.17
2023-03-28T23:53:56.377Z,2.30
2023-03-28T23:56:23.968Z,2.28
2023-03-28T23:58:51.362Z,1.95
